sensor_id;sensor_type;location;lat;lon;timestamp;temperature;humidity
45108;DHT22;30869;51.188;6.556;2022-09-24T00:28:59;13.70;99.90
45108;DHT22;30869;51.188;6.556;2022-09-24T04:10:51;13.20;99.90
45108;DHT22;30869;51.188;6.556;2022-09-24T04:18:49;13.20;99.90
45108;DHT22;30869;51.188;6.556;2022-09-24T04:49:02;13.40;99.90
45108;DHT22;30869;51.188;6.556;2022-09-24T04:51:52;13.30;99.90
45108;DHT22;30869;51.188;6.556;2022-09-24T04:54:18;13.30;99.90
45108;DHT22;30869;51.188;6.556;2022-09-24T04:56:44;13.20;99.90
45108;DHT22;30869;51.188;6.556;2022-09-24T04:59:12;13.30;99.90
45108;DHT22;30869;51.188;6.556;2022-09-24T05:01:38;13.30;99.90
45108;DHT22;30869;51.188;6.556;2022-09-24T05:04:04;13.30;99.90
45108;DHT22;30869;51.188;6.556;2022-09-24T05:06:30;13.30;99.90
45108;DHT22;30869;51.188;6.556;2022-09-24T05:08:56;13.30;99.90
45108;DHT22;30869;51.188;6.556;2022-09-24T05:11:22;13.30;99.90
45108;DHT22;30869;51.188;6.556;2022-09-24T05:13:48;13.40;99.90
45108;DHT22;30869;51.188;6.556;2022-09-24T05:16:13;13.40;99.90
45108;DHT22;30869;51.188;6.556;2022-09-24T05:18:43;13.40;99.90
45108;DHT22;30869;51.188;6.556;2022-09-24T05:21:09;13.40;99.90
45108;DHT22;30869;51.188;6.556;2022-09-24T05:23:35;13.50;99.90
45108;DHT22;30869;51.188;6.556;2022-09-24T05:26:01;13.40;99.90
45108;DHT22;30869;51.188;6.556;2022-09-24T05:28:45;13.40;99.90
45108;DHT22;30869;51.188;6.556;2022-09-24T05:31:11;13.40;99.90
45108;DHT22;30869;51.188;6.556;2022-09-24T05:33:38;13.50;99.90
45108;DHT22;30869;51.188;6.556;2022-09-24T05:36:04;13.40;99.90
45108;DHT22;30869;51.188;6.556;2022-09-24T05:38:30;13.40;99.90
45108;DHT22;30869;51.188;6.556;2022-09-24T05:40:57;13.40;99.90
45108;DHT22;30869;51.188;6.556;2022-09-24T05:43:23;13.40;99.90
45108;DHT22;30869;51.188;6.556;2022-09-24T05:45:52;13.40;99.90
45108;DHT22;30869;51.188;6.556;2022-09-24T05:48:19;13.40;99.90
45108;DHT22;30869;51.188;6.556;2022-09-24T05:50:45;13.50;99.90
45108;DHT22;30869;51.188;6.556;2022-09-24T05:53:11;13.40;99.90
45108;DHT22;30869;51.188;6.556;2022-09-24T05:55:37;13.40;99.90
45108;DHT22;30869;51.188;6.556;2022-09-24T05:58:08;13.40;99.90
45108;DHT22;30869;51.188;6.556;2022-09-24T06:00:35;13.40;99.90
45108;DHT22;30869;51.188;6.556;2022-09-24T06:03:20;13.50;99.90
45108;DHT22;30869;51.188;6.556;2022-09-24T06:05:48;13.40;99.90
45108;DHT22;30869;51.188;6.556;2022-09-24T06:08:18;13.40;99.90
45108;DHT22;30869;51.188;6.556;2022-09-24T06:10:45;13.50;99.90
45108;DHT22;30869;51.188;6.556;2022-09-24T06:13:13;13.50;99.90
45108;DHT22;30869;51.188;6.556;2022-09-24T06:15:40;13.60;99.90
45108;DHT22;30869;51.188;6.556;2022-09-24T06:18:07;13.50;99.90
45108;DHT22;30869;51.188;6.556;2022-09-24T06:20:33;13.60;99.90
45108;DHT22;30869;51.188;6.556;2022-09-24T06:23:00;13.60;99.90
45108;DHT22;30869;51.188;6.556;2022-09-24T06:25:27;13.70;99.90
45108;DHT22;30869;51.188;6.556;2022-09-24T06:27:58;13.50;99.90
45108;DHT22;30869;51.188;6.556;2022-09-24T06:30:34;13.50;99.90
45108;DHT22;30869;51.188;6.556;2022-09-24T06:33:04;13.50;99.90
45108;DHT22;30869;51.188;6.556;2022-09-24T06:35:36;13.50;99.90
45108;DHT22;30869;51.188;6.556;2022-09-24T06:38:03;13.50;99.90
45108;DHT22;30869;51.188;6.556;2022-09-24T06:40:29;13.50;99.90
45108;DHT22;30869;51.188;6.556;2022-09-24T06:42:55;13.50;99.90
45108;DHT22;30869;51.188;6.556;2022-09-24T06:45:21;13.60;99.90
45108;DHT22;30869;51.188;6.556;2022-09-24T06:47:58;13.50;99.90
45108;DHT22;30869;51.188;6.556;2022-09-24T06:50:27;13.50;99.90
45108;DHT22;30869;51.188;6.556;2022-09-24T06:52:53;13.50;99.90
45108;DHT22;30869;51.188;6.556;2022-09-24T06:55:19;13.50;99.90
45108;DHT22;30869;51.188;6.556;2022-09-24T06:57:45;13.50;99.90
45108;DHT22;30869;51.188;6.556;2022-09-24T07:00:12;13.50;99.90
45108;DHT22;30869;51.188;6.556;2022-09-24T07:02:38;13.60;99.90
45108;DHT22;30869;51.188;6.556;2022-09-24T07:05:04;13.60;99.90
45108;DHT22;30869;51.188;6.556;2022-09-24T07:07:30;13.60;99.90
45108;DHT22;30869;51.188;6.556;2022-09-24T07:09:59;13.60;99.90
45108;DHT22;30869;51.188;6.556;2022-09-24T07:12:30;13.60;99.90
45108;DHT22;30869;51.188;6.556;2022-09-24T07:14:56;13.60;99.90
45108;DHT22;30869;51.188;6.556;2022-09-24T07:17:23;13.60;99.90
45108;DHT22;30869;51.188;6.556;2022-09-24T07:19:49;13.70;99.90
45108;DHT22;30869;51.188;6.556;2022-09-24T07:22:15;13.80;99.90
45108;DHT22;30869;51.188;6.556;2022-09-24T07:24:41;13.80;99.90
45108;DHT22;30869;51.188;6.556;2022-09-24T07:27:07;13.80;99.90
45108;DHT22;30869;51.188;6.556;2022-09-24T07:29:33;13.80;99.90
45108;DHT22;30869;51.188;6.556;2022-09-24T07:32:00;13.80;99.90
45108;DHT22;30869;51.188;6.556;2022-09-24T07:34:26;13.80;99.90
45108;DHT22;30869;51.188;6.556;2022-09-24T07:36:53;14.00;99.90
45108;DHT22;30869;51.188;6.556;2022-09-24T07:39:18;13.80;99.90
45108;DHT22;30869;51.188;6.556;2022-09-24T07:41:44;13.80;99.90
45108;DHT22;30869;51.188;6.556;2022-09-24T07:44:10;13.80;99.90
45108;DHT22;30869;51.188;6.556;2022-09-24T07:46:36;13.80;99.90
45108;DHT22;30869;51.188;6.556;2022-09-24T07:49:02;13.80;99.90
45108;DHT22;30869;51.188;6.556;2022-09-24T07:51:28;13.80;99.90
45108;DHT22;30869;51.188;6.556;2022-09-24T07:53:54;13.80;99.90
45108;DHT22;30869;51.188;6.556;2022-09-24T07:56:21;13.80;99.90
45108;DHT22;30869;51.188;6.556;2022-09-24T07:58:48;13.80;99.90
45108;DHT22;30869;51.188;6.556;2022-09-24T08:01:15;13.80;99.90
45108;DHT22;30869;51.188;6.556;2022-09-24T08:03:42;13.80;99.90
45108;DHT22;30869;51.188;6.556;2022-09-24T08:06:09;13.80;99.90
45108;DHT22;30869;51.188;6.556;2022-09-24T08:08:34;13.80;99.90
45108;DHT22;30869;51.188;6.556;2022-09-24T08:11:05;13.90;99.90
45108;DHT22;30869;51.188;6.556;2022-09-24T08:13:31;13.90;99.90
45108;DHT22;30869;51.188;6.556;2022-09-24T08:15:59;13.90;99.90
45108;DHT22;30869;51.188;6.556;2022-09-24T08:18:26;14.00;99.90
45108;DHT22;30869;51.188;6.556;2022-09-24T08:20:52;14.00;99.90
45108;DHT22;30869;51.188;6.556;2022-09-24T08:23:18;14.00;99.90
45108;DHT22;30869;51.188;6.556;2022-09-24T08:25:45;14.00;99.90
45108;DHT22;30869;51.188;6.556;2022-09-24T08:28:11;14.30;99.90
45108;DHT22;30869;51.188;6.556;2022-09-24T08:30:38;14.10;99.90
45108;DHT22;30869;51.188;6.556;2022-09-24T08:33:07;14.30;99.90
45108;DHT22;30869;51.188;6.556;2022-09-24T08:35:34;14.10;99.90
45108;DHT22;30869;51.188;6.556;2022-09-24T08:38:00;14.10;99.90
45108;DHT22;30869;51.188;6.556;2022-09-24T08:40:29;14.10;99.90
45108;DHT22;30869;51.188;6.556;2022-09-24T08:43:16;14.20;99.90
45108;DHT22;30869;51.188;6.556;2022-09-24T08:45:51;14.20;99.90
45108;DHT22;30869;51.188;6.556;2022-09-24T08:48:39;14.20;99.90
45108;DHT22;30869;51.188;6.556;2022-09-24T08:51:12;14.30;99.90
45108;DHT22;30869;51.188;6.556;2022-09-24T08:53:58;14.30;99.90
45108;DHT22;30869;51.188;6.556;2022-09-24T08:56:44;14.30;99.90
45108;DHT22;30869;51.188;6.556;2022-09-24T08:59:41;14.50;99.90
45108;DHT22;30869;51.188;6.556;2022-09-24T09:03:12;14.50;99.90
45108;DHT22;30869;51.188;6.556;2022-09-24T09:10:28;14.80;99.90
45108;DHT22;30869;51.188;6.556;2022-09-24T09:13:31;14.90;99.90
45108;DHT22;30869;51.188;6.556;2022-09-24T09:19:11;14.90;99.90
45108;DHT22;30869;51.188;6.556;2022-09-24T09:27:39;14.90;99.90
45108;DHT22;30869;51.188;6.556;2022-09-24T09:30:06;14.80;99.90
45108;DHT22;30869;51.188;6.556;2022-09-24T09:33:01;15.00;99.90
45108;DHT22;30869;51.188;6.556;2022-09-24T09:35:40;15.10;99.90
45108;DHT22;30869;51.188;6.556;2022-09-24T09:38:28;15.20;99.90
45108;DHT22;30869;51.188;6.556;2022-09-24T09:41:23;15.10;99.90
45108;DHT22;30869;51.188;6.556;2022-09-24T09:44:23;15.00;99.90
45108;DHT22;30869;51.188;6.556;2022-09-24T09:58:25;15.40;99.90
45108;DHT22;30869;51.188;6.556;2022-09-24T10:01:44;15.30;99.90
45108;DHT22;30869;51.188;6.556;2022-09-24T10:23:56;15.30;99.90
45108;DHT22;30869;51.188;6.556;2022-09-24T10:33:03;15.30;99.90
45108;DHT22;30869;51.188;6.556;2022-09-24T10:36:33;15.40;99.90
45108;DHT22;30869;51.188;6.556;2022-09-24T12:45:17;15.50;99.90
45108;DHT22;30869;51.188;6.556;2022-09-24T12:55:23;15.50;99.90
45108;DHT22;30869;51.188;6.556;2022-09-24T12:58:28;15.60;99.90
45108;DHT22;30869;51.188;6.556;2022-09-24T13:06:41;15.40;99.90
45108;DHT22;30869;51.188;6.556;2022-09-24T13:14:55;15.60;99.90
45108;DHT22;30869;51.188;6.556;2022-09-24T13:17:23;15.60;99.90
45108;DHT22;30869;51.188;6.556;2022-09-24T13:19:56;15.50;99.90
45108;DHT22;30869;51.188;6.556;2022-09-24T13:22:33;15.50;99.90
45108;DHT22;30869;51.188;6.556;2022-09-24T13:27:37;15.50;99.90
45108;DHT22;30869;51.188;6.556;2022-09-24T13:30:21;15.40;99.90
45108;DHT22;30869;51.188;6.556;2022-09-24T13:33:26;15.40;99.90
45108;DHT22;30869;51.188;6.556;2022-09-24T13:36:18;15.50;99.90
45108;DHT22;30869;51.188;6.556;2022-09-24T13:39:09;15.60;99.90
45108;DHT22;30869;51.188;6.556;2022-09-24T13:41:47;15.60;99.90
45108;DHT22;30869;51.188;6.556;2022-09-24T13:44:35;15.60;99.90
45108;DHT22;30869;51.188;6.556;2022-09-24T13:47:11;15.50;99.90
45108;DHT22;30869;51.188;6.556;2022-09-24T13:49:41;15.50;99.90
45108;DHT22;30869;51.188;6.556;2022-09-24T13:52:33;15.50;99.90
45108;DHT22;30869;51.188;6.556;2022-09-24T13:55:10;15.50;99.90
45108;DHT22;30869;51.188;6.556;2022-09-24T13:57:45;15.40;99.90
45108;DHT22;30869;51.188;6.556;2022-09-24T14:00:21;15.40;99.90
45108;DHT22;30869;51.188;6.556;2022-09-24T14:03:19;15.40;99.90
45108;DHT22;30869;51.188;6.556;2022-09-24T14:05:46;15.40;99.90
45108;DHT22;30869;51.188;6.556;2022-09-24T14:08:14;15.30;99.90
45108;DHT22;30869;51.188;6.556;2022-09-24T14:10:43;15.30;99.90
45108;DHT22;30869;51.188;6.556;2022-09-24T14:13:20;15.30;99.90
45108;DHT22;30869;51.188;6.556;2022-09-24T14:16:07;15.40;99.90
45108;DHT22;30869;51.188;6.556;2022-09-24T14:18:33;15.30;99.90
45108;DHT22;30869;51.188;6.556;2022-09-24T14:21:07;15.30;99.90
45108;DHT22;30869;51.188;6.556;2022-09-24T14:23:56;15.40;99.90
45108;DHT22;30869;51.188;6.556;2022-09-24T14:26:28;15.40;99.90
45108;DHT22;30869;51.188;6.556;2022-09-24T14:29:13;15.30;99.90
45108;DHT22;30869;51.188;6.556;2022-09-24T14:31:48;15.30;99.90
45108;DHT22;30869;51.188;6.556;2022-09-24T14:36:47;15.30;99.90
45108;DHT22;30869;51.188;6.556;2022-09-24T14:39:13;15.20;99.90
45108;DHT22;30869;51.188;6.556;2022-09-24T14:41:39;15.20;99.90
45108;DHT22;30869;51.188;6.556;2022-09-24T14:44:19;15.30;99.90
45108;DHT22;30869;51.188;6.556;2022-09-24T14:46:48;15.30;99.90
45108;DHT22;30869;51.188;6.556;2022-09-24T14:49:27;15.20;99.90
45108;DHT22;30869;51.188;6.556;2022-09-24T14:52:28;15.20;99.90
45108;DHT22;30869;51.188;6.556;2022-09-24T14:55:17;15.10;99.90
45108;DHT22;30869;51.188;6.556;2022-09-24T14:57:48;15.20;99.90
45108;DHT22;30869;51.188;6.556;2022-09-24T15:00:31;15.20;99.90
45108;DHT22;30869;51.188;6.556;2022-09-24T15:03:05;15.20;99.90
45108;DHT22;30869;51.188;6.556;2022-09-24T15:05:36;15.20;99.90
45108;DHT22;30869;51.188;6.556;2022-09-24T15:08:29;15.30;99.90
45108;DHT22;30869;51.188;6.556;2022-09-24T15:10:59;15.20;99.90
45108;DHT22;30869;51.188;6.556;2022-09-24T15:13:36;15.30;99.90
45108;DHT22;30869;51.188;6.556;2022-09-24T15:16:29;15.20;99.90
45108;DHT22;30869;51.188;6.556;2022-09-24T15:21:35;15.20;99.90
45108;DHT22;30869;51.188;6.556;2022-09-24T15:24:32;15.20;99.90
45108;DHT22;30869;51.188;6.556;2022-09-24T15:27:18;15.30;99.90
45108;DHT22;30869;51.188;6.556;2022-09-24T15:29:45;15.00;99.90
45108;DHT22;30869;51.188;6.556;2022-09-24T15:32:18;15.20;99.90
45108;DHT22;30869;51.188;6.556;2022-09-24T15:34:45;15.20;99.90
45108;DHT22;30869;51.188;6.556;2022-09-24T15:37:19;15.20;99.90
45108;DHT22;30869;51.188;6.556;2022-09-24T15:39:46;15.20;99.90
45108;DHT22;30869;51.188;6.556;2022-09-24T15:42:20;15.20;99.90
45108;DHT22;30869;51.188;6.556;2022-09-24T15:44:47;15.10;99.90
45108;DHT22;30869;51.188;6.556;2022-09-24T15:47:16;15.10;99.90
45108;DHT22;30869;51.188;6.556;2022-09-24T15:49:43;15.20;99.90
45108;DHT22;30869;51.188;6.556;2022-09-24T15:54:39;15.10;99.90
45108;DHT22;30869;51.188;6.556;2022-09-24T15:57:06;15.10;99.90
45108;DHT22;30869;51.188;6.556;2022-09-24T15:59:36;15.10;99.90
45108;DHT22;30869;51.188;6.556;2022-09-24T16:02:30;15.10;99.90
45108;DHT22;30869;51.188;6.556;2022-09-24T16:04:59;15.10;99.90
45108;DHT22;30869;51.188;6.556;2022-09-24T16:07:26;15.10;99.90
45108;DHT22;30869;51.188;6.556;2022-09-24T16:09:54;15.10;99.90
45108;DHT22;30869;51.188;6.556;2022-09-24T16:12:22;15.00;99.90
45108;DHT22;30869;51.188;6.556;2022-09-24T16:14:56;15.20;99.90
45108;DHT22;30869;51.188;6.556;2022-09-24T16:17:30;15.10;99.90
45108;DHT22;30869;51.188;6.556;2022-09-24T16:19:56;15.10;99.90
45108;DHT22;30869;51.188;6.556;2022-09-24T16:22:23;15.10;99.90
45108;DHT22;30869;51.188;6.556;2022-09-24T16:24:49;15.10;99.90
45108;DHT22;30869;51.188;6.556;2022-09-24T16:27:15;15.10;99.90
45108;DHT22;30869;51.188;6.556;2022-09-24T16:29:41;15.10;99.90
45108;DHT22;30869;51.188;6.556;2022-09-24T16:32:07;15.00;99.90
45108;DHT22;30869;51.188;6.556;2022-09-24T16:34:33;15.30;99.90
45108;DHT22;30869;51.188;6.556;2022-09-24T16:36:59;15.10;99.90
45108;DHT22;30869;51.188;6.556;2022-09-24T16:39:25;15.00;99.90
45108;DHT22;30869;51.188;6.556;2022-09-24T16:41:51;15.20;99.90
45108;DHT22;30869;51.188;6.556;2022-09-24T16:44:17;15.00;99.90
45108;DHT22;30869;51.188;6.556;2022-09-24T16:46:43;15.00;99.90
45108;DHT22;30869;51.188;6.556;2022-09-24T16:49:09;15.00;99.90
45108;DHT22;30869;51.188;6.556;2022-09-24T16:51:35;15.10;99.90
45108;DHT22;30869;51.188;6.556;2022-09-24T16:54:02;15.10;99.90
45108;DHT22;30869;51.188;6.556;2022-09-24T16:56:30;15.10;99.90
45108;DHT22;30869;51.188;6.556;2022-09-24T16:58:56;15.10;99.90
45108;DHT22;30869;51.188;6.556;2022-09-24T17:01:22;15.10;99.90
45108;DHT22;30869;51.188;6.556;2022-09-24T17:03:53;15.10;99.90
45108;DHT22;30869;51.188;6.556;2022-09-24T17:06:27;15.10;99.90
45108;DHT22;30869;51.188;6.556;2022-09-24T17:08:53;15.10;99.90
45108;DHT22;30869;51.188;6.556;2022-09-24T17:11:38;15.10;99.90
45108;DHT22;30869;51.188;6.556;2022-09-24T17:14:08;15.10;99.90
45108;DHT22;30869;51.188;6.556;2022-09-24T17:16:35;15.00;99.90
45108;DHT22;30869;51.188;6.556;2022-09-24T17:19:00;15.10;99.90
45108;DHT22;30869;51.188;6.556;2022-09-24T17:21:26;15.10;99.90
45108;DHT22;30869;51.188;6.556;2022-09-24T17:26:59;15.10;99.90
45108;DHT22;30869;51.188;6.556;2022-09-24T17:29:25;15.10;99.90
45108;DHT22;30869;51.188;6.556;2022-09-24T17:31:51;15.10;99.90
45108;DHT22;30869;51.188;6.556;2022-09-24T17:34:17;15.00;99.90
45108;DHT22;30869;51.188;6.556;2022-09-24T17:36:43;15.10;99.90
45108;DHT22;30869;51.188;6.556;2022-09-24T17:39:11;15.00;99.90
45108;DHT22;30869;51.188;6.556;2022-09-24T17:41:37;15.00;99.90
45108;DHT22;30869;51.188;6.556;2022-09-24T17:44:03;15.10;99.90
45108;DHT22;30869;51.188;6.556;2022-09-24T17:46:30;15.10;99.90
45108;DHT22;30869;51.188;6.556;2022-09-24T17:48:58;15.00;99.90
45108;DHT22;30869;51.188;6.556;2022-09-24T17:51:29;15.00;99.90
45108;DHT22;30869;51.188;6.556;2022-09-24T17:53:57;15.10;99.90
45108;DHT22;30869;51.188;6.556;2022-09-24T17:56:26;15.00;99.90
45108;DHT22;30869;51.188;6.556;2022-09-24T17:58:53;15.00;99.90
45108;DHT22;30869;51.188;6.556;2022-09-24T18:01:22;14.90;99.90
45108;DHT22;30869;51.188;6.556;2022-09-24T18:03:56;15.00;99.90
45108;DHT22;30869;51.188;6.556;2022-09-24T18:06:23;14.90;99.90
45108;DHT22;30869;51.188;6.556;2022-09-24T18:08:49;15.10;99.90
45108;DHT22;30869;51.188;6.556;2022-09-24T18:11:21;15.00;99.90
45108;DHT22;30869;51.188;6.556;2022-09-24T18:13:52;15.00;99.90
45108;DHT22;30869;51.188;6.556;2022-09-24T18:16:20;14.80;99.90
45108;DHT22;30869;51.188;6.556;2022-09-24T18:18:47;14.90;99.90
45108;DHT22;30869;51.188;6.556;2022-09-24T18:21:18;14.90;99.90
45108;DHT22;30869;51.188;6.556;2022-09-24T18:23:44;14.90;99.90
45108;DHT22;30869;51.188;6.556;2022-09-24T18:26:20;14.90;99.90
45108;DHT22;30869;51.188;6.556;2022-09-24T18:28:49;14.80;99.90
45108;DHT22;30869;51.188;6.556;2022-09-24T18:31:16;14.80;99.90
45108;DHT22;30869;51.188;6.556;2022-09-24T18:33:43;14.80;99.90
45108;DHT22;30869;51.188;6.556;2022-09-24T18:36:14;14.80;99.90
45108;DHT22;30869;51.188;6.556;2022-09-24T18:38:40;14.80;99.90
45108;DHT22;30869;51.188;6.556;2022-09-24T18:41:10;14.70;99.90
45108;DHT22;30869;51.188;6.556;2022-09-24T18:43:38;14.70;99.90
45108;DHT22;30869;51.188;6.556;2022-09-24T18:46:06;14.70;99.90
45108;DHT22;30869;51.188;6.556;2022-09-24T18:48:33;14.80;99.90
45108;DHT22;30869;51.188;6.556;2022-09-24T18:51:00;14.80;99.90
45108;DHT22;30869;51.188;6.556;2022-09-24T18:53:26;14.70;99.90
45108;DHT22;30869;51.188;6.556;2022-09-24T19:00:03;14.80;99.90
45108;DHT22;30869;51.188;6.556;2022-09-24T19:03:12;14.60;99.90
45108;DHT22;30869;51.188;6.556;2022-09-24T19:06:06;14.60;99.90
45108;DHT22;30869;51.188;6.556;2022-09-24T19:21:03;14.70;99.90
45108;DHT22;30869;51.188;6.556;2022-09-24T19:24:10;14.70;99.90
45108;DHT22;30869;51.188;6.556;2022-09-24T19:32:48;14.70;99.90
45108;DHT22;30869;51.188;6.556;2022-09-24T19:35:15;14.70;99.90
45108;DHT22;30869;51.188;6.556;2022-09-24T19:37:42;14.70;99.90
45108;DHT22;30869;51.188;6.556;2022-09-24T19:40:08;14.70;99.90
45108;DHT22;30869;51.188;6.556;2022-09-24T19:42:35;14.70;99.90
45108;DHT22;30869;51.188;6.556;2022-09-24T19:45:01;14.70;99.90
45108;DHT22;30869;51.188;6.556;2022-09-24T19:47:36;14.70;99.90
45108;DHT22;30869;51.188;6.556;2022-09-24T19:50:04;14.80;99.90
45108;DHT22;30869;51.188;6.556;2022-09-24T19:52:33;14.80;99.90
45108;DHT22;30869;51.188;6.556;2022-09-24T19:55:06;14.90;99.90
45108;DHT22;30869;51.188;6.556;2022-09-24T19:57:42;14.80;99.90
45108;DHT22;30869;51.188;6.556;2022-09-24T20:05:18;14.80;99.90
45108;DHT22;30869;51.188;6.556;2022-09-24T20:07:45;14.70;99.90
45108;DHT22;30869;51.188;6.556;2022-09-24T20:10:11;15.00;99.90
45108;DHT22;30869;51.188;6.556;2022-09-24T20:12:38;14.70;99.90
45108;DHT22;30869;51.188;6.556;2022-09-24T20:15:07;14.80;99.90
45108;DHT22;30869;51.188;6.556;2022-09-24T20:17:37;14.70;99.90
45108;DHT22;30869;51.188;6.556;2022-09-24T20:20:03;14.70;99.90
45108;DHT22;30869;51.188;6.556;2022-09-24T20:22:31;14.60;99.90
45108;DHT22;30869;51.188;6.556;2022-09-24T20:25:00;14.60;99.90
45108;DHT22;30869;51.188;6.556;2022-09-24T20:27:26;14.70;99.90
45108;DHT22;30869;51.188;6.556;2022-09-24T20:30:10;14.60;99.90
45108;DHT22;30869;51.188;6.556;2022-09-24T20:32:40;14.70;99.90
45108;DHT22;30869;51.188;6.556;2022-09-24T20:35:09;14.80;99.90
45108;DHT22;30869;51.188;6.556;2022-09-24T20:37:39;14.80;99.90
45108;DHT22;30869;51.188;6.556;2022-09-24T20:40:05;14.80;99.90
45108;DHT22;30869;51.188;6.556;2022-09-24T20:42:35;14.80;99.90
45108;DHT22;30869;51.188;6.556;2022-09-24T20:45:01;14.80;99.90
45108;DHT22;30869;51.188;6.556;2022-09-24T20:47:30;14.90;99.90
45108;DHT22;30869;51.188;6.556;2022-09-24T20:49:58;14.90;99.90
45108;DHT22;30869;51.188;6.556;2022-09-24T20:52:24;14.90;99.90
45108;DHT22;30869;51.188;6.556;2022-09-24T20:54:51;14.90;99.90
45108;DHT22;30869;51.188;6.556;2022-09-24T20:57:20;14.90;99.90
45108;DHT22;30869;51.188;6.556;2022-09-24T20:59:45;14.60;99.90
45108;DHT22;30869;51.188;6.556;2022-09-24T21:02:13;14.60;99.90
45108;DHT22;30869;51.188;6.556;2022-09-24T21:04:41;14.50;99.90
45108;DHT22;30869;51.188;6.556;2022-09-24T21:07:09;14.60;99.90
45108;DHT22;30869;51.188;6.556;2022-09-24T21:09:35;14.50;99.90
45108;DHT22;30869;51.188;6.556;2022-09-24T21:12:04;14.70;99.90
45108;DHT22;30869;51.188;6.556;2022-09-24T21:14:30;14.60;99.90
45108;DHT22;30869;51.188;6.556;2022-09-24T21:17:00;14.80;99.90
45108;DHT22;30869;51.188;6.556;2022-09-24T21:19:26;14.70;99.90
45108;DHT22;30869;51.188;6.556;2022-09-24T21:21:53;14.70;99.90
45108;DHT22;30869;51.188;6.556;2022-09-24T21:24:19;14.70;99.90
45108;DHT22;30869;51.188;6.556;2022-09-24T21:26:45;14.70;99.90
45108;DHT22;30869;51.188;6.556;2022-09-24T21:29:17;14.80;99.90
45108;DHT22;30869;51.188;6.556;2022-09-24T21:31:47;14.80;99.90
45108;DHT22;30869;51.188;6.556;2022-09-24T21:34:15;14.80;99.90
45108;DHT22;30869;51.188;6.556;2022-09-24T21:36:43;14.80;99.90
45108;DHT22;30869;51.188;6.556;2022-09-24T21:39:17;14.70;99.90
45108;DHT22;30869;51.188;6.556;2022-09-24T21:41:46;14.60;99.90
45108;DHT22;30869;51.188;6.556;2022-09-24T21:44:16;14.60;99.90
45108;DHT22;30869;51.188;6.556;2022-09-24T21:46:42;14.50;99.90
45108;DHT22;30869;51.188;6.556;2022-09-24T21:49:12;14.60;99.90
45108;DHT22;30869;51.188;6.556;2022-09-24T21:51:38;14.60;99.90
45108;DHT22;30869;51.188;6.556;2022-09-24T21:54:09;14.80;99.90
45108;DHT22;30869;51.188;6.556;2022-09-24T21:56:36;14.50;99.90
45108;DHT22;30869;51.188;6.556;2022-09-24T21:59:03;14.50;99.90
45108;DHT22;30869;51.188;6.556;2022-09-24T22:01:53;14.70;99.90
45108;DHT22;30869;51.188;6.556;2022-09-24T22:04:20;14.50;99.90
45108;DHT22;30869;51.188;6.556;2022-09-24T22:06:47;14.50;99.90
45108;DHT22;30869;51.188;6.556;2022-09-24T22:09:14;14.40;99.90
45108;DHT22;30869;51.188;6.556;2022-09-24T22:11:40;14.70;99.90
45108;DHT22;30869;51.188;6.556;2022-09-24T22:14:07;14.60;99.90
45108;DHT22;30869;51.188;6.556;2022-09-24T22:16:34;14.60;99.90
45108;DHT22;30869;51.188;6.556;2022-09-24T22:19:01;14.50;99.90
45108;DHT22;30869;51.188;6.556;2022-09-24T22:21:30;14.50;99.90
45108;DHT22;30869;51.188;6.556;2022-09-24T22:23:56;14.60;99.90
45108;DHT22;30869;51.188;6.556;2022-09-24T22:26:22;14.50;99.90
45108;DHT22;30869;51.188;6.556;2022-09-24T22:28:51;14.50;99.90
45108;DHT22;30869;51.188;6.556;2022-09-24T22:31:18;14.40;99.90
45108;DHT22;30869;51.188;6.556;2022-09-24T22:33:44;14.40;99.90
45108;DHT22;30869;51.188;6.556;2022-09-24T22:36:30;14.50;99.90
45108;DHT22;30869;51.188;6.556;2022-09-24T22:38:57;14.50;99.90
45108;DHT22;30869;51.188;6.556;2022-09-24T22:41:25;14.50;99.90
45108;DHT22;30869;51.188;6.556;2022-09-24T22:43:53;14.50;99.90
45108;DHT22;30869;51.188;6.556;2022-09-24T22:46:18;14.60;99.90
45108;DHT22;30869;51.188;6.556;2022-09-24T22:48:45;14.60;99.90
45108;DHT22;30869;51.188;6.556;2022-09-24T22:51:12;14.60;99.90
45108;DHT22;30869;51.188;6.556;2022-09-24T22:53:39;14.50;99.90
45108;DHT22;30869;51.188;6.556;2022-09-24T22:56:11;14.50;99.90
45108;DHT22;30869;51.188;6.556;2022-09-24T22:58:38;14.50;99.90
45108;DHT22;30869;51.188;6.556;2022-09-24T23:01:14;14.50;99.90
45108;DHT22;30869;51.188;6.556;2022-09-24T23:03:42;14.50;99.90
45108;DHT22;30869;51.188;6.556;2022-09-24T23:06:09;14.60;99.90
45108;DHT22;30869;51.188;6.556;2022-09-24T23:08:37;14.50;99.90
45108;DHT22;30869;51.188;6.556;2022-09-24T23:11:11;14.50;99.90
45108;DHT22;30869;51.188;6.556;2022-09-24T23:13:38;14.50;99.90
45108;DHT22;30869;51.188;6.556;2022-09-24T23:18:37;14.40;99.90
45108;DHT22;30869;51.188;6.556;2022-09-24T23:21:05;14.40;99.90
45108;DHT22;30869;51.188;6.556;2022-09-24T23:23:31;14.40;99.90
45108;DHT22;30869;51.188;6.556;2022-09-24T23:26:07;14.40;99.90
45108;DHT22;30869;51.188;6.556;2022-09-24T23:28:34;14.40;99.90
45108;DHT22;30869;51.188;6.556;2022-09-24T23:31:00;14.40;99.90
45108;DHT22;30869;51.188;6.556;2022-09-24T23:33:30;14.50;99.90
45108;DHT22;30869;51.188;6.556;2022-09-24T23:35:56;14.30;99.90
45108;DHT22;30869;51.188;6.556;2022-09-24T23:38:22;14.50;99.90
45108;DHT22;30869;51.188;6.556;2022-09-24T23:40:48;14.50;99.90
45108;DHT22;30869;51.188;6.556;2022-09-24T23:43:16;14.50;99.90
45108;DHT22;30869;51.188;6.556;2022-09-24T23:45:43;14.50;99.90
45108;DHT22;30869;51.188;6.556;2022-09-24T23:48:10;14.50;99.90
45108;DHT22;30869;51.188;6.556;2022-09-24T23:50:36;14.40;99.90
45108;DHT22;30869;51.188;6.556;2022-09-24T23:53:02;14.50;99.90
45108;DHT22;30869;51.188;6.556;2022-09-24T23:55:29;14.60;99.90
45108;DHT22;30869;51.188;6.556;2022-09-24T23:57:55;14.40;99.90
